logo
Games released by Sekai Project
# Game Release date
Price
Score rank
(Userscore / Metascore)
Owners
Playtime (Median)
1 CLANNAD Apr 28, 2004 $44.99N/A (N/A/83%)100,000 .. 200,00000:00 (00:00)
2 Muv-Luv Alternative Feb 28, 2018 $39.99N/A (N/A/83%)0 .. 20,00000:00 (00:00)
3 Muv-Luv Feb 28, 2018 $29.99N/A (N/A/76%)0 .. 20,00000:00 (00:00)
4 9-nine-:Episode 1 Jan 31, 2019 $19.99N/A (N/A)0 .. 20,00000:05 (00:05)
5 fault - milestone two side:above Sep 8, 2015 $14.99N/A (N/A)50,000 .. 100,00000:00 (00:00)
6 Cherry Tree High Girls' Fight Jun 13, 2016 $12.99N/A (N/A)0 .. 20,00000:00 (00:00)
7 WORLD END ECONOMiCA episode.02 Jul 21, 2015 $12.99N/A (N/A)20,000 .. 50,00000:00 (00:00)
8 Last Stanza Nov 9, 2018 $7.99N/A (N/A)0 .. 20,00000:00 (00:00)
9 NEKOPARA Vol. 1 Dec 29, 2014 $9.99N/A (N/A)500,000 .. 1,000,00000:04 (00:04)
10 TOKYO CHRONOS Mar 19, 2019 $39.99N/A (N/A)0 .. 20,00000:00 (00:00)
11 The Ditzy Demons Are in Love With Me Oct 26, 2018 $24.99N/A (N/A)20,000 .. 50,00000:00 (00:00)
12 Just Deserts Jul 25, 2016 $5.99N/A (N/A)0 .. 20,00000:00 (00:00)
13 Reverse x Reverse Dec 10, 2015 $9.99N/A (N/A)0 .. 20,00000:00 (00:00)
14 Winter Polaris Dec 12, 2019 $14.99N/A (N/A)0 .. 20,00000:00 (00:00)
15 Ne no Kami: The Two Princess Knights of Kyoto Oct 26, 2016 $9.99N/A (N/A)0 .. 20,00000:00 (00:00)
16 Mhakna Gramura and Fairy Bell Feb 19, 2018 $4.99N/A (N/A)0 .. 20,00000:00 (00:00)
17 The Waters Above: Prelude Jun 27, 2018 FreeN/A (N/A)0 .. 20,00000:00 (00:00)
18 Rising Angels: Reborn Sep 12, 2014 FreeN/A (N/A)100,000 .. 200,00000:00 (00:00)
19 A Light in the Dark Jun 15, 2018 $14.99N/A (N/A)20,000 .. 50,00000:00 (00:00)
20 PacaPlus Mar 30, 2017 $9.99N/A (N/A)0 .. 20,00000:00 (00:00)
21 WAGAMAMA HIGH SPEC Jul 26, 2017 $39.99N/A (N/A)0 .. 20,00000:00 (00:00)
22 Innocent Forest: The Bird of Light Oct 5, 2018 $4.99N/A (N/A)0 .. 20,00000:00 (00:00)
23 Heart of the Woods Feb 15, 2019 $14.99N/A (N/A)0 .. 20,00000:00 (00:00)
24 NEKOPARA Extra Jul 26, 2018 $4.99N/A (N/A)50,000 .. 100,00000:00 (00:00)
25 The Witch's Love Diary Jul 26, 2019 $29.99N/A (N/A)0 .. 20,00003:31 (03:31)
26 9-nine-:Episode 2 Aug 16, 2019 $19.99N/A (N/A)0 .. 20,00000:00 (00:00)
27 Innocent Forest 2: The Bed in the Sky Oct 5, 2018 $4.99N/A (N/A)0 .. 20,00000:00 (00:00)
28 NEKOPARA Vol. 0 Aug 17, 2015 $2.99N/A (N/A)500,000 .. 1,000,00000:01 (00:00)
29 A Magical High School Girl / 魔法の女子高生 Nov 22, 2016 $9.99N/A (N/A)20,000 .. 50,00000:00 (00:00)
30 Sierra Ops : Episode 1 - Collapsing Daybreak Jan 15, 2020 FreeN/A (N/A)0 .. 20,00000:00 (00:00)
31 Nanairo Reincarnation Sep 27, 2019 $29.99N/A (N/A)0 .. 20,00000:00 (00:00)
32 G-senjou no Maou - The Devil on G-String Nov 5, 2015 $19.99N/A (N/A)0 .. 20,00000:00 (00:00)
33 Eternal Hour: Golden Hour Nov 27, 2017 FreeN/A (N/A)0 .. 20,00000:00 (00:00)
34 NEKO-NIN exHeart +PLUS Nachi Nov 2, 2017 $1.99N/A (N/A)20,000 .. 50,00000:00 (00:00)
35 Love, Guitars, and the Nashville Skyline Nov 22, 2016 $9.99N/A (N/A)0 .. 20,00000:00 (00:00)
36 Hoshizora no Memoria -Wish upon a Shooting Star- Dec 18, 2017 $19.99N/A (N/A)0 .. 20,00000:00 (00:00)
37 Sunrider Academy Apr 15, 2015 $9.99N/A (N/A)50,000 .. 100,00000:00 (00:00)
38 Walkerman May 22, 2017 $6.99N/A (N/A)0 .. 20,00000:00 (00:00)
39 Yohjo Simulator Nov 17, 2015 $4.99N/A (N/A)0 .. 20,00000:00 (00:00)
40 A Butterfly in the District of Dreams May 12, 2017 $9.99N/A (N/A)0 .. 20,00000:00 (00:00)
41 fault - milestone one Dec 15, 2014 $14.99N/A (N/A)200,000 .. 500,00000:00 (00:00)
42 Baldr Sky Dec 20, 2019 $49.99N/A (N/A)0 .. 20,00000:00 (00:00)
43 planetarian ~the reverie of a little planet~ Sep 12, 2014 $9.99N/A (N/A)50,000 .. 100,00000:00 (00:00)
44 Re;Lord 1 ~The witch of Herfort and stuffed animals~ Mar 9, 2018 $9.99N/A (N/A)0 .. 20,00000:00 (00:00)
45 Creature Romances: Kokonoe Kokoro Mar 2, 2018 $2.99N/A (N/A)0 .. 20,00000:00 (00:00)
46 Tactical Chronicle Apr 18, 2018 $4.99N/A (N/A)0 .. 20,00000:00 (00:00)
47 NEKOPARA Vol. 2 Feb 19, 2016 $9.99N/A (N/A)500,000 .. 1,000,00000:01 (00:00)
48 NEKO-NIN exHeart 3 Oct 18, 2019 $9.99N/A (N/A)0 .. 20,00000:00 (00:00)
49 Companion Mar 31, 2017 $9.99N/A (N/A)0 .. 20,00000:00 (00:00)
50 Sound of Drop - fall into poison - Oct 30, 2015 $12.99N/A (N/A)50,000 .. 100,00000:00 (00:00)
51 M.A.S.S. Builder Sep 13, 2019 $24.99N/A (N/A)20,000 .. 50,00000:00 (00:00)
52 Fatal Twelve Mar 30, 2018 $19.99N/A (N/A)0 .. 20,00000:00 (00:00)
53 VOID Oct 31, 2017 $6.59N/A (N/A)0 .. 20,00000:00 (00:00)
54 The Emerald Tablet Dec 16, 2019 $19.99N/A (N/A)0 .. 20,00000:00 (00:00)
55 NEKO-NIN exHeart 2 Love +PLUS Apr 26, 2019 $4.99N/A (N/A)0 .. 20,00000:00 (00:00)
56 KARAKARA2 Nov 10, 2017 $9.99N/A (N/A)0 .. 20,00000:00 (00:00)
57 Love at First Sight May 18, 2015 $9.99N/A (N/A)20,000 .. 50,00000:00 (00:00)
58 Ne no Kami - The Two Princess Knights of Kyoto Part 2 Sep 7, 2017 $9.99N/A (N/A)0 .. 20,00000:00 (00:00)
59 How to Raise a Wolf Girl Oct 11, 2019 $19.99N/A (N/A)0 .. 20,00000:00 (00:00)
60 CyberRebeat -The Fifth Domain of Warfare- Aug 24, 2018 $9.99N/A (N/A)0 .. 20,00000:00 (00:00)
61 Resette's Prescription ~Book of memory, Swaying scale~ May 30, 2016 $12.99N/A (N/A)0 .. 20,00000:00 (00:00)
62 Saku Saku: Love Blooms with the Cherry Blossoms Oct 2, 2017 $19.99N/A (N/A)0 .. 20,00000:00 (00:00)
63 Rising Angels: Hope Mar 18, 2016 $14.99N/A (N/A)0 .. 20,00000:00 (00:00)
64 A More Beautiful World - A Kinetic Visual Novel Sep 28, 2018 $19.99N/A (N/A)0 .. 20,00000:00 (00:00)
65 NEKOPARA Vol. 3 May 25, 2017 $9.99N/A (N/A)200,000 .. 500,00000:00 (00:00)
66 RaidersSphere4th Jun 1, 2015 $19.99N/A (N/A)50,000 .. 100,00000:00 (00:00)
67 Memory's Dogma CODE:01 Nov 4, 2016 $14.99N/A (N/A)20,000 .. 50,00000:00 (00:00)
68 Highway Blossoms Jun 17, 2016 $12.99N/A (N/A)200,000 .. 500,00000:00 (00:00)
69 Tobari and the Night of the Curious Moon Aug 11, 2012 $9.99N/A (N/A)0 .. 20,00000:00 (00:00)
70 Root Double -Before Crime * After Days- Xtend Edition Apr 27, 2016 $34.99N/A (N/A)20,000 .. 50,00000:00 (00:00)
71 Sunrider: Liberation Day - Captain's Edition Mar 4, 2016 $24.99N/A (N/A)100,000 .. 200,00000:00 (00:00)
72 Maitetsu Jun 29, 2018 $14.99N/A (N/A)0 .. 20,00000:00 (00:00)
73 Trapper Knight, Sharpshooter Princess Apr 10, 2017 $14.99N/A (N/A)0 .. 20,00000:00 (00:00)
74 Exogenesis ~Perils of Rebirth~ Apr 19, 2019 $29.99N/A (N/A)0 .. 20,00000:00 (00:00)
75 Love's Sweet Garnish Sep 7, 2018 $12.99N/A (N/A)0 .. 20,00000:00 (00:00)
76 Lucid9: Inciting Incident Apr 14, 2016 FreeN/A (N/A)100,000 .. 200,00000:00 (00:00)
77 2236 A.D. May 11, 2018 $14.99N/A (N/A)0 .. 20,00000:00 (00:00)
78 NEKO-NIN exHeart +PLUS Saiha Nov 17, 2017 $1.99N/A (N/A)0 .. 20,00000:00 (00:00)
79 The Bell Chimes for Gold Apr 6, 2018 $9.99N/A (N/A)0 .. 20,00000:00 (00:00)
80 Muv-Luv photonflowers* Aug 2, 2019 $24.99N/A (N/A)0 .. 20,00000:00 (00:00)
81 Selenon Rising Apr 29, 2016 $5.99N/A (N/A)0 .. 20,00000:00 (00:00)
82 Rabi-Ribi Jan 28, 2016 $17.99N/A (N/A)100,000 .. 200,00000:00 (00:00)
83 National Park Girls Mar 14, 2019 $4.99N/A (N/A)0 .. 20,00000:00 (00:00)
84 KARAKARA Jun 27, 2016 $9.99N/A (N/A)100,000 .. 200,00000:00 (00:00)
85 Ninja Girl and the Mysterious Army of Urban Legend Monsters! ~Hunt of the Headless Horseman~ Jun 24, 2019 $15.99N/A (N/A)0 .. 20,00000:00 (00:00)
86 WORLD END ECONOMiCA episode.03 Dec 21, 2016 $12.99N/A (N/A)20,000 .. 50,00000:00 (00:00)
87 Machina of the Planet Tree -Planet Ruler- Jul 28, 2015 $12.99N/A (N/A)20,000 .. 50,00000:00 (00:00)
88 The Falconers: Moonlight Apr 18, 2017 $9.99N/A (N/A)0 .. 20,00000:00 (00:00)
89 Ame no Marginal -Rain Marginal- Jul 7, 2015 $12.99N/A (N/A)50,000 .. 100,00000:00 (00:00)
90 Sunrider: Mask of Arcadius Jul 9, 2014 FreeN/A (N/A)500,000 .. 1,000,00000:00 (00:00)
91 Serment - Contract with a Devil Feb 1, 2019 $14.99N/A (N/A)0 .. 20,00000:00 (00:00)
92 WORLD END ECONOMiCA episode.01 Jun 17, 2014 $12.99N/A (N/A)50,000 .. 100,00000:00 (00:00)
93 Japanese School Life Nov 22, 2016 $9.99N/A (N/A)50,000 .. 100,00000:00 (00:00)
94 AL・FINE Nov 11, 2016 $14.99N/A (N/A)0 .. 20,00000:00 (00:00)
95 Order of Ataxia: Initial Effects Aug 17, 2017 $9.99N/A (N/A)0 .. 20,00000:00 (00:00)
96 NEKO-NIN exHeart Apr 21, 2017 $9.99N/A (N/A)20,000 .. 50,00000:00 (00:00)
97 NEKO-NIN exHeart 2 Apr 27, 2018 $9.99N/A (N/A)0 .. 20,00000:00 (00:00)
98 The Orchard of Stray Sheep Jun 20, 2016 $9.99N/A (N/A)0 .. 20,00000:00 (00:00)
99 Shining Song Starnova Sep 13, 2018 $29.99N/A (N/A)0 .. 20,00000:00 (00:00)
100 MAGICAL×SPIRAL Dec 20, 2016 $14.99N/A (N/A)0 .. 20,00000:00 (00:00)
101 My Little Kitties Jun 21, 2016 $9.99N/A (N/A)0 .. 20,00000:00 (00:00)
102 Narcissu 10th Anniversary Anthology Project Jan 27, 2016 $2.99N/A (N/A)20,000 .. 50,00000:00 (00:00)
103 Narcissu 1st & 2nd Apr 24, 2015 FreeN/A (N/A)200,000 .. 500,00000:00 (00:00)
104 ChronoClock Feb 28, 2017 $29.99N/A (N/A)0 .. 20,00000:00 (00:00)
105 Tropical Liquor Mar 9, 2018 $9.99N/A (N/A)100,000 .. 200,00000:00 (00:00)
106 Project LUX Feb 2, 2018 $24.99N/A (N/A)0 .. 20,00000:00 (00:00)
107 NEKOPALIVE May 31, 2016 FreeN/A (N/A)200,000 .. 500,00000:00 (00:00)
108 A Clockwork Ley-Line: The Borderline of Dusk Dec 18, 2017 $19.99N/A (N/A)0 .. 20,00001:01 (01:01)
109 CLANNAD Side Stories Jun 2, 2016 $19.99N/A (N/A)20,000 .. 50,00000:00 (00:00)
110 ATOM GRRRL!! Mar 1, 2016 $9.99N/A (N/A)0 .. 20,00000:00 (00:00)
Overview

Sekai Project

Games by this company: 110
Average userscore: N/A%
Average metascore: 80.67%
Average playtime: 00:47
Total copies owned: 6,604,000
Average price: $15.09
Help

Owners: Estimated number of people owning this game. The number might be way too small for new releases and sometimes way too big for games that had free weekend event recently. Read more on About page.

Playtime: Average hours played in total per person that have actually launched this game since March 2009. This time is calculated for the whole lifetime, not for the particular year.

Average score: Average users and metacritic score for all games with this score assigned.

Average playtime: Average lifetime playtime for all games where this data is available.

Games by this company: Self-explaining - number of games released by this company on Steam. Both developed and published. Only inculdes games with sales data available.

Total copies owned: Refers to total copies of games developed or published by this company acquired by users for the lifetime. Includes copies sold, downloaded for free and given out.

This number might be too small for recently released games or too big for games that had a free weekend in the last couple of months.

Graphs

Access restricted.

This feature is only available to users with special access rights. Sorry.

If you want to proceed, you need to register or log in first and then back Steam Spy on Patreon. Look for Indie or Pro pledge.

Don't forget to use the same email as on Steam Spy!